createdAt,value
2018-02-13T00:00:48.907Z,9.00
2018-02-13T00:01:48.929Z,9.30
2018-02-13T00:02:48.954Z,9.40
2018-02-13T00:03:48.976Z,9.00
2018-02-13T00:04:48.996Z,10.20
2018-02-13T00:05:49.023Z,8.90
2018-02-13T00:06:49.047Z,10.50
2018-02-13T00:07:49.114Z,8.90
2018-02-13T00:08:49.088Z,10.10
2018-02-13T00:09:49.109Z,9.30
2018-02-13T00:10:49.134Z,10.10
2018-02-13T00:11:49.155Z,8.80
2018-02-13T00:12:49.177Z,9.00
2018-02-13T00:13:49.200Z,9.00
2018-02-13T00:14:49.223Z,9.90
2018-02-13T00:15:49.246Z,9.40
2018-02-13T00:16:49.266Z,9.80
2018-02-13T00:17:49.288Z,9.80
2018-02-13T00:18:49.313Z,10.60
2018-02-13T00:19:49.335Z,9.80
2018-02-13T00:20:49.355Z,9.70
2018-02-13T00:21:49.379Z,9.90
2018-02-13T00:33:49.647Z,9.20
2018-02-13T00:34:49.669Z,10.40
2018-02-13T00:35:49.693Z,9.80
2018-02-13T00:36:49.714Z,10.60
2018-02-13T00:37:49.736Z,10.60
2018-02-13T00:38:49.759Z,10.80
2018-02-13T00:39:49.780Z,10.60
2018-02-13T00:40:49.802Z,9.40
2018-02-13T00:41:49.825Z,10.20
2018-02-13T00:42:49.849Z,10.30
2018-02-13T00:43:49.870Z,9.90
2018-02-13T00:44:49.891Z,10.90
2018-02-13T00:45:49.914Z,10.00
2018-02-13T00:46:49.935Z,10.10
2018-02-13T00:47:49.958Z,8.50
2018-02-13T00:48:50.097Z,9.40
2018-02-13T00:49:50.004Z,9.10
2018-02-13T00:50:50.026Z,9.20
2018-02-13T00:51:50.047Z,9.70
2018-02-13T00:52:50.068Z,8.80
2018-02-13T00:53:50.091Z,8.90
2018-02-13T00:54:50.113Z,8.90
2018-02-13T00:55:50.136Z,9.50
2018-02-13T00:56:50.157Z,9.20
2018-02-13T00:57:50.179Z,8.90
2018-02-13T00:58:50.202Z,9.40
2018-02-13T00:59:50.225Z,9.50
2018-02-13T01:00:50.248Z,8.80
2018-02-13T01:01:50.268Z,10.00
2018-02-13T01:02:50.290Z,9.50
2018-02-13T01:03:50.312Z,9.20
2018-02-13T01:04:50.334Z,8.10
2018-02-13T01:05:50.355Z,8.70
2018-02-13T01:06:50.379Z,8.50
2018-02-13T01:07:50.404Z,9.30
2018-02-13T01:08:50.422Z,8.50
2018-02-13T01:09:50.444Z,7.60
2018-02-13T01:10:50.467Z,7.50
2018-02-13T01:11:50.489Z,7.70
2018-02-13T01:12:50.511Z,7.90
2018-02-13T01:13:50.533Z,7.90
2018-02-13T01:14:50.554Z,6.90
2018-02-13T01:15:50.577Z,7.80
2018-02-13T01:16:50.599Z,7.30
2018-02-13T01:17:50.622Z,7.20
2018-02-13T01:18:50.643Z,7.10
2018-02-13T01:19:50.664Z,7.40
2018-02-13T01:20:50.688Z,7.70
2018-02-13T01:21:50.709Z,7.90
2018-02-13T01:22:50.732Z,7.90
2018-02-13T01:23:50.754Z,8.00
2018-02-13T01:24:50.775Z,7.90
2018-02-13T01:25:50.797Z,7.30
2018-02-13T01:26:50.820Z,8.10
2018-02-13T01:27:50.842Z,7.70
2018-02-13T01:28:50.863Z,7.70
2018-02-13T01:29:50.886Z,7.10
2018-02-13T01:30:50.908Z,7.10
2018-02-13T01:31:50.929Z,7.00
2018-02-13T01:32:50.952Z,6.70
2018-02-13T01:33:50.974Z,7.00
2018-02-13T01:34:50.997Z,6.30
2018-02-13T01:35:51.018Z,7.30
2018-02-13T01:36:51.039Z,7.00
2018-02-13T01:37:51.061Z,7.00
2018-02-13T01:38:51.083Z,6.50
2018-02-13T01:39:51.106Z,6.70
2018-02-13T01:40:51.128Z,6.90
2018-02-13T01:41:51.149Z,6.80
2018-02-13T01:42:51.171Z,6.80
2018-02-13T01:43:51.192Z,7.20
2018-02-13T01:44:51.219Z,7.40
2018-02-13T01:45:51.237Z,7.20
2018-02-13T01:46:51.259Z,7.30
2018-02-13T01:47:51.282Z,6.90
2018-02-13T01:48:51.302Z,6.70
2018-02-13T01:49:51.325Z,7.00
2018-02-13T01:50:51.347Z,7.00
2018-02-13T01:51:51.369Z,6.30
2018-02-13T01:52:51.390Z,6.50
2018-02-13T01:53:51.412Z,6.60
2018-02-13T01:54:51.436Z,6.60
2018-02-13T01:55:51.455Z,6.30
2018-02-13T01:56:51.477Z,6.50
2018-02-13T01:57:51.500Z,6.80
2018-02-13T01:58:51.522Z,6.70
2018-02-13T01:59:51.545Z,6.50
2018-02-13T02:00:51.566Z,6.50
2018-02-13T02:01:51.587Z,6.80
2018-02-13T02:02:51.610Z,6.50
2018-02-13T02:03:51.631Z,7.20
2018-02-13T02:04:51.653Z,6.90
2018-02-13T02:05:51.675Z,6.80
2018-02-13T02:06:51.696Z,6.50
2018-02-13T02:07:51.719Z,6.80
2018-02-13T02:08:51.740Z,6.20
2018-02-13T02:09:51.762Z,6.70
2018-02-13T02:10:51.785Z,6.30
2018-02-13T02:11:51.807Z,6.20
2018-02-13T02:12:51.828Z,5.80
2018-02-13T02:13:51.863Z,6.50
2018-02-13T02:14:51.872Z,6.90
2018-02-13T02:15:51.894Z,6.40
2018-02-13T02:16:51.915Z,5.90
2018-02-13T02:17:51.938Z,5.60
2018-02-13T02:18:51.958Z,5.10
2018-02-13T02:19:51.981Z,5.20
2018-02-13T02:20:52.005Z,5.90
2018-02-13T02:21:52.024Z,5.50
2018-02-13T02:22:52.047Z,5.00
2018-02-13T02:23:52.070Z,5.90
2018-02-13T02:24:52.090Z,5.60
2018-02-13T02:25:52.112Z,5.80
2018-02-13T02:26:52.134Z,5.70
2018-02-13T02:27:52.156Z,5.40
2018-02-13T02:28:52.177Z,5.70
2018-02-13T02:29:52.198Z,6.00
2018-02-13T02:30:52.222Z,6.50
2018-02-13T02:31:52.244Z,6.20
2018-02-13T02:32:52.265Z,6.60
2018-02-13T02:33:52.287Z,5.80
2018-02-13T02:34:52.310Z,6.40
2018-02-13T02:35:52.331Z,6.20
2018-02-13T02:36:52.352Z,5.50
2018-02-13T02:37:52.374Z,6.10
2018-02-13T02:38:52.401Z,5.60
2018-02-13T02:39:52.419Z,5.90
2018-02-13T02:40:52.438Z,6.00
2018-02-13T02:41:52.460Z,6.00
2018-02-13T02:42:52.483Z,6.10
2018-02-13T02:43:52.505Z,6.40
2018-02-13T02:44:52.526Z,5.40
2018-02-13T02:45:52.546Z,5.60
2018-02-13T02:46:52.570Z,6.00
2018-02-13T02:47:52.591Z,6.10
2018-02-13T02:48:52.612Z,5.20
2018-02-13T02:49:52.637Z,5.00
2018-02-13T02:50:52.656Z,5.60
2018-02-13T02:51:52.678Z,5.10
2018-02-13T02:52:52.699Z,6.10
2018-02-13T02:53:52.721Z,5.40
2018-02-13T02:54:52.743Z,5.20
2018-02-13T02:55:52.766Z,5.10
2018-02-13T02:56:52.786Z,5.40
2018-02-13T02:57:52.808Z,5.90
2018-02-13T02:58:52.830Z,5.40
2018-02-13T02:59:52.851Z,5.00
2018-02-13T03:00:52.872Z,5.30
2018-02-13T03:01:52.895Z,5.50
2018-02-13T03:02:52.917Z,5.00
2018-02-13T03:03:52.939Z,5.00
2018-02-13T03:04:52.960Z,4.40
2018-02-13T03:05:52.985Z,5.40
2018-02-13T03:06:53.002Z,5.10
2018-02-13T03:07:53.025Z,5.40
2018-02-13T03:08:53.048Z,4.90
2018-02-13T03:09:53.068Z,5.50
2018-02-13T03:10:53.090Z,5.00
2018-02-13T03:11:53.113Z,5.20
2018-02-13T03:12:53.133Z,4.90
2018-02-13T03:13:53.154Z,5.50
2018-02-13T03:14:53.176Z,5.20
2018-02-13T03:15:53.197Z,5.20
2018-02-13T03:16:53.218Z,5.70
2018-02-13T03:17:53.242Z,5.00
2018-02-13T03:18:53.263Z,4.90
2018-02-13T03:19:53.284Z,5.20
2018-02-13T03:20:53.305Z,5.00
2018-02-13T03:21:53.328Z,4.70
2018-02-13T03:22:53.349Z,5.20
2018-02-13T03:23:53.370Z,4.70
2018-02-13T03:24:53.402Z,4.60
2018-02-13T03:25:53.416Z,5.30
2018-02-13T03:26:53.435Z,4.80
2018-02-13T03:27:53.457Z,5.40
2018-02-13T03:28:53.478Z,5.10
2018-02-13T03:29:53.500Z,5.00
2018-02-13T03:30:53.524Z,5.20
2018-02-13T03:31:53.543Z,5.00
2018-02-13T03:32:53.565Z,5.20
2018-02-13T03:33:53.586Z,5.50
2018-02-13T03:34:53.606Z,5.70
2018-02-13T03:35:53.629Z,6.10
2018-02-13T03:36:53.653Z,6.40
2018-02-13T03:37:53.671Z,6.10
2018-02-13T03:38:53.695Z,5.90
2018-02-13T03:39:53.716Z,5.30
2018-02-13T03:40:53.737Z,5.70
2018-02-13T03:41:53.758Z,5.40
2018-02-13T03:42:53.830Z,5.90
2018-02-13T03:43:53.802Z,5.10
2018-02-13T03:44:53.822Z,5.00
2018-02-13T03:45:53.846Z,5.20
2018-02-13T03:46:53.867Z,5.30
2018-02-13T03:47:53.949Z,5.00
2018-02-13T03:48:53.907Z,5.20
2018-02-13T03:49:53.929Z,5.00
2018-02-13T03:50:53.954Z,4.80
2018-02-13T03:51:53.972Z,4.90
2018-02-13T03:52:53.999Z,4.80
2018-02-13T03:53:54.015Z,5.30
2018-02-13T03:54:54.037Z,5.10
2018-02-13T03:55:54.062Z,4.60
2018-02-13T03:56:54.078Z,5.00
2018-02-13T03:57:54.100Z,5.00
2018-02-13T03:58:54.124Z,5.00
2018-02-13T03:59:54.143Z,5.00
2018-02-13T04:00:54.165Z,5.00
2018-02-13T04:01:54.187Z,5.10
2018-02-13T04:02:54.208Z,4.70
2018-02-13T04:03:54.229Z,4.90
2018-02-13T04:04:54.251Z,5.00
2018-02-13T04:05:54.271Z,5.10
2018-02-13T04:06:54.294Z,4.60
2018-02-13T04:07:54.316Z,5.10
2018-02-13T04:08:54.337Z,5.20
2018-02-13T04:09:54.358Z,5.00
2018-02-13T04:10:54.380Z,5.60
2018-02-13T04:11:54.400Z,5.40
2018-02-13T04:12:54.421Z,5.40
2018-02-13T04:13:54.444Z,5.40
2018-02-13T04:14:54.465Z,5.50
2018-02-13T04:15:54.487Z,5.30
2018-02-13T04:16:54.508Z,5.30
2018-02-13T04:17:54.528Z,5.40
2018-02-13T04:18:54.553Z,5.40
2018-02-13T04:19:54.574Z,5.30
2018-02-13T04:20:54.592Z,4.90
2018-02-13T04:21:54.614Z,5.30
2018-02-13T04:22:54.636Z,5.00
2018-02-13T04:23:54.661Z,4.90
2018-02-13T04:24:54.678Z,4.90
2018-02-13T04:25:54.700Z,5.00
2018-02-13T04:26:54.721Z,4.50
2018-02-13T04:27:54.743Z,5.00
2018-02-13T04:28:54.766Z,4.50
2018-02-13T04:29:54.787Z,4.70
2018-02-13T04:30:54.816Z,4.70
2018-02-13T04:31:54.829Z,5.00
2018-02-13T04:32:54.872Z,4.70
2018-02-13T04:33:54.921Z,4.50
2018-02-13T04:34:54.895Z,4.90
2018-02-13T04:35:54.916Z,4.80
2018-02-13T04:36:54.935Z,4.60
2018-02-13T04:37:54.957Z,4.90
2018-02-13T04:38:54.978Z,4.60
2018-02-13T04:39:55.000Z,5.10
2018-02-13T04:40:55.020Z,5.60
2018-02-13T04:41:55.042Z,4.20
2018-02-13T04:42:55.065Z,4.50
2018-02-13T04:43:55.136Z,5.20
2018-02-13T04:44:55.106Z,5.30
2018-02-13T04:45:55.126Z,5.10
2018-02-13T04:46:55.149Z,4.80
2018-02-13T04:47:55.172Z,4.30
2018-02-13T04:48:55.191Z,4.60
2018-02-13T04:49:55.212Z,4.80
2018-02-13T04:50:55.234Z,5.30
2018-02-13T04:51:55.255Z,4.70
2018-02-13T04:52:55.276Z,4.80
2018-02-13T04:53:55.297Z,4.90
2018-02-13T04:54:55.319Z,4.10
2018-02-13T04:55:55.341Z,4.40
2018-02-13T04:56:55.360Z,5.10
2018-02-13T04:57:55.382Z,4.70
2018-02-13T04:58:55.404Z,4.40
2018-02-13T04:59:55.424Z,4.80
2018-02-13T05:00:55.446Z,5.30
2018-02-13T05:01:55.467Z,4.60
2018-02-13T05:02:55.488Z,4.50
2018-02-13T05:03:55.509Z,4.10
2018-02-13T05:04:55.531Z,4.60
2018-02-13T05:05:55.552Z,4.50
2018-02-13T05:06:55.573Z,4.30
2018-02-13T05:07:55.595Z,4.80
2018-02-13T05:08:55.617Z,4.80
2018-02-13T05:09:55.637Z,5.20
2018-02-13T05:10:55.662Z,4.40
2018-02-13T05:11:55.680Z,4.70
2018-02-13T05:12:55.700Z,4.50
2018-02-13T05:13:55.722Z,4.90
2018-02-13T05:14:55.746Z,5.00
2018-02-13T05:15:55.766Z,4.80
2018-02-13T05:16:55.785Z,4.80
2018-02-13T05:17:55.805Z,4.60
2018-02-13T05:18:55.829Z,5.40
2018-02-13T05:19:55.851Z,5.20
2018-02-13T05:20:55.871Z,5.00
2018-02-13T05:21:55.892Z,5.40
2018-02-13T05:22:55.912Z,4.50
2018-02-13T05:23:55.936Z,4.80
2018-02-13T05:24:55.955Z,5.00
2018-02-13T05:25:55.975Z,5.30
2018-02-13T05:26:55.998Z,6.20
2018-02-13T05:27:56.020Z,5.60
2018-02-13T05:28:56.040Z,5.20
2018-02-13T05:29:56.061Z,4.90
2018-02-13T05:30:56.083Z,5.60
2018-02-13T05:31:56.103Z,5.30
2018-02-13T05:32:56.128Z,5.20
2018-02-13T05:33:56.146Z,5.50
2018-02-13T05:34:56.168Z,5.30
2018-02-13T05:35:56.189Z,5.30
2018-02-13T05:36:56.210Z,5.80
2018-02-13T05:37:56.235Z,5.10
2018-02-13T05:38:56.252Z,4.70
2018-02-13T05:39:56.276Z,5.60
2018-02-13T05:40:56.294Z,4.80
2018-02-13T05:41:56.316Z,5.40
2018-02-13T05:42:56.338Z,5.80
2018-02-13T05:43:56.359Z,5.50
2018-02-13T05:44:56.379Z,5.80
2018-02-13T05:45:56.401Z,5.30
2018-02-13T05:46:56.421Z,5.40
2018-02-13T05:47:56.445Z,5.90
2018-02-13T05:48:56.465Z,5.20
2018-02-13T05:49:56.485Z,4.90
2018-02-13T05:50:56.528Z,6.00
2018-02-13T05:51:56.529Z,5.20
2018-02-13T05:52:56.549Z,5.50
2018-02-13T05:53:56.570Z,5.50
2018-02-13T05:54:56.592Z,5.20
2018-02-13T05:55:56.613Z,4.90
2018-02-13T05:56:56.652Z,5.60
2018-02-13T05:57:56.656Z,5.50
2018-02-13T05:58:56.676Z,5.70
2018-02-13T05:59:56.699Z,5.70
2018-02-13T06:00:56.721Z,6.40
2018-02-13T06:01:56.740Z,6.70
2018-02-13T06:02:56.762Z,5.30
2018-02-13T06:03:56.785Z,5.40
2018-02-13T06:04:56.804Z,6.00
2018-02-13T06:05:56.825Z,5.60
2018-02-13T06:06:56.890Z,6.50
2018-02-13T06:07:56.868Z,6.30
2018-02-13T06:08:56.888Z,6.50
2018-02-13T06:09:56.909Z,6.90
2018-02-13T06:10:56.931Z,6.90
2018-02-13T06:11:56.954Z,7.30
2018-02-13T06:12:56.975Z,6.80
2018-02-13T06:13:56.994Z,7.50
2018-02-13T06:14:57.016Z,6.80
2018-02-13T06:15:57.037Z,6.60
2018-02-13T06:16:57.057Z,6.60
2018-02-13T06:17:57.079Z,6.30
2018-02-13T06:18:57.099Z,6.80
2018-02-13T06:19:57.121Z,6.20
2018-02-13T06:20:57.142Z,6.10
2018-02-13T06:21:57.163Z,6.90
2018-02-13T06:22:57.184Z,6.50
2018-02-13T06:23:57.206Z,6.40
2018-02-13T06:24:57.226Z,6.40
2018-02-13T06:25:57.249Z,5.80
2018-02-13T06:26:57.268Z,6.20
2018-02-13T06:27:57.291Z,6.30
2018-02-13T06:28:57.311Z,5.80
2018-02-13T06:29:57.332Z,6.30
2018-02-13T06:30:57.353Z,5.90
2018-02-13T06:31:57.375Z,6.80
2018-02-13T06:32:57.394Z,6.40
2018-02-13T06:33:57.416Z,6.20
2018-02-13T06:34:57.437Z,6.70
2018-02-13T06:35:57.458Z,7.00
2018-02-13T06:36:57.479Z,6.70
2018-02-13T06:37:57.501Z,5.50
2018-02-13T06:38:57.522Z,6.40
2018-02-13T06:39:57.543Z,6.20
2018-02-13T06:40:57.563Z,6.10
2018-02-13T06:41:57.583Z,6.50
2018-02-13T06:42:57.606Z,6.80
2018-02-13T06:43:57.627Z,6.80
2018-02-13T06:44:57.648Z,6.80
2018-02-13T06:45:57.669Z,5.80
2018-02-13T06:46:57.690Z,5.60
2018-02-13T06:47:57.710Z,6.30
2018-02-13T06:48:57.732Z,6.70
2018-02-13T06:49:57.754Z,6.20
2018-02-13T06:50:57.774Z,7.30
2018-02-13T06:51:57.797Z,6.90
2018-02-13T06:52:57.817Z,6.70
2018-02-13T06:53:57.838Z,7.60
2018-02-13T06:54:57.861Z,7.10
2018-02-13T06:55:57.881Z,7.20
2018-02-13T06:56:57.905Z,7.10
2018-02-13T06:57:57.925Z,6.70
2018-02-13T06:58:57.944Z,6.80
2018-02-13T06:59:57.966Z,6.80
2018-02-13T07:00:57.988Z,6.80
2018-02-13T07:01:58.008Z,6.80
2018-02-13T07:02:58.030Z,7.20
2018-02-13T07:03:58.052Z,7.20
2018-02-13T07:04:58.072Z,8.00
2018-02-13T07:05:58.094Z,7.10
2018-02-13T07:06:58.117Z,7.90
2018-02-13T07:07:58.137Z,7.20
2018-02-13T07:08:58.157Z,8.20
2018-02-13T07:09:58.228Z,8.10
2018-02-13T07:10:58.202Z,9.00
2018-02-13T07:11:58.226Z,8.40
2018-02-13T07:12:58.245Z,8.70
2018-02-13T07:13:58.265Z,8.50
2018-02-13T07:14:58.288Z,8.10
2018-02-13T07:15:58.310Z,9.00
2018-02-13T07:16:58.345Z,9.40
2018-02-13T07:17:58.373Z,8.60
2018-02-13T07:18:58.375Z,8.50
2018-02-13T07:19:58.397Z,9.30
2018-02-13T07:20:58.431Z,8.90
2018-02-13T07:21:58.440Z,9.60
2018-02-13T07:22:58.463Z,9.60
2018-02-13T07:23:58.492Z,9.10
2018-02-13T07:24:58.506Z,8.80
2018-02-13T07:25:58.529Z,8.50
2018-02-13T07:26:58.551Z,8.90
2018-02-13T07:27:58.575Z,8.90
2018-02-13T07:28:58.594Z,8.10
2018-02-13T07:29:58.617Z,8.60
2018-02-13T07:30:58.639Z,7.60
2018-02-13T07:31:58.662Z,8.20
2018-02-13T07:32:58.684Z,8.10
2018-02-13T07:33:58.710Z,8.20
2018-02-13T07:34:58.729Z,7.80
2018-02-13T07:35:58.751Z,8.60
2018-02-13T07:36:58.773Z,9.00
2018-02-13T07:37:58.796Z,8.50
2018-02-13T07:38:58.819Z,8.80
2018-02-13T07:39:58.842Z,9.80
2018-02-13T07:40:58.864Z,9.60
2018-02-13T07:41:58.887Z,9.40
2018-02-13T07:42:58.912Z,9.00
2018-02-13T07:43:58.934Z,9.40
2018-02-13T07:44:58.956Z,9.80
2018-02-13T07:45:58.979Z,8.70
2018-02-13T07:46:59.003Z,10.00
2018-02-13T07:47:59.025Z,9.00
2018-02-13T07:48:59.048Z,8.80
2018-02-13T07:49:59.072Z,8.70
2018-02-13T07:50:59.095Z,9.60
2018-02-13T07:51:59.122Z,9.30
2018-02-13T07:52:59.142Z,10.30
2018-02-13T07:53:59.167Z,9.60
2018-02-13T07:54:59.190Z,10.50
2018-02-13T07:55:59.213Z,9.70
2018-02-13T07:56:59.237Z,9.80
2018-02-13T07:57:59.261Z,11.20
2018-02-13T07:58:59.286Z,10.50
2018-02-13T07:59:59.310Z,10.30
2018-02-13T08:00:59.333Z,11.00
2018-02-13T08:01:59.359Z,10.50
2018-02-13T08:02:59.382Z,10.70
2018-02-13T08:03:59.407Z,10.30
2018-02-13T08:04:59.431Z,10.70
2018-02-13T08:05:59.456Z,10.30
2018-02-13T08:06:59.481Z,10.70
2018-02-13T08:07:59.507Z,11.20
2018-02-13T08:08:59.532Z,11.00
2018-02-13T08:09:59.555Z,10.80
2018-02-13T08:10:59.582Z,11.10
2018-02-13T08:11:59.608Z,11.70
2018-02-13T08:12:59.651Z,13.40
2018-02-13T08:13:59.659Z,12.40
2018-02-13T08:14:59.777Z,12.40
2018-02-13T08:15:59.711Z,12.00
2018-02-13T08:16:59.736Z,11.00
2018-02-13T08:17:59.763Z,12.20
2018-02-13T08:18:59.789Z,11.20
2018-02-13T08:19:59.816Z,11.70
2018-02-13T08:20:59.841Z,11.30
2018-02-13T08:21:59.870Z,11.10
2018-02-13T08:22:59.895Z,10.50
2018-02-13T08:23:59.922Z,11.00
2018-02-13T08:24:59.948Z,10.80
2018-02-13T08:25:59.975Z,10.10
2018-02-13T08:27:00.006Z,10.10
2018-02-13T08:28:00.031Z,9.70
2018-02-13T08:29:00.057Z,9.50
2018-02-13T08:30:00.086Z,10.40
2018-02-13T08:31:00.112Z,10.90
2018-02-13T08:32:00.139Z,10.80
2018-02-13T08:33:00.166Z,9.80
2018-02-13T08:34:00.194Z,11.40
2018-02-13T08:35:00.222Z,11.40
2018-02-13T08:36:00.253Z,11.70
2018-02-13T08:37:00.278Z,12.70
2018-02-13T08:38:00.307Z,11.70
2018-02-13T08:39:00.336Z,11.00
2018-02-13T08:40:00.364Z,11.50
2018-02-13T08:41:00.390Z,11.40
2018-02-13T08:42:00.419Z,11.30
2018-02-13T08:43:00.449Z,11.80
2018-02-13T08:44:00.480Z,12.30
2018-02-13T08:45:00.543Z,11.60
2018-02-13T08:46:00.537Z,11.60
2018-02-13T08:47:00.566Z,11.90
2018-02-13T08:48:00.599Z,11.30
2018-02-13T08:49:00.623Z,10.60
2018-02-13T08:50:00.654Z,10.30
2018-02-13T08:51:00.685Z,10.80
2018-02-13T08:52:00.714Z,10.70
2018-02-13T08:53:00.743Z,10.70
2018-02-13T08:54:00.774Z,9.40
2018-02-13T08:55:00.804Z,9.10
2018-02-13T08:56:00.834Z,8.50
2018-02-13T08:57:00.864Z,8.80
2018-02-13T08:58:00.895Z,8.10
2018-02-13T08:59:00.927Z,8.10
2018-02-13T09:00:00.958Z,8.60
2018-02-13T09:01:00.989Z,8.90
2018-02-13T09:02:01.021Z,8.40
2018-02-13T09:03:01.052Z,7.30
2018-02-13T09:04:01.084Z,7.70
2018-02-13T09:05:01.116Z,7.60
2018-02-13T09:06:01.148Z,7.70
2018-02-13T09:07:01.181Z,7.20
2018-02-13T09:08:01.213Z,6.80
2018-02-13T09:09:01.300Z,6.90
2018-02-13T09:10:01.278Z,7.20
2018-02-13T09:11:01.313Z,6.70
2018-02-13T09:12:01.345Z,6.80
2018-02-13T09:13:01.377Z,7.00
2018-02-13T09:14:01.411Z,6.90
2018-02-13T09:15:01.445Z,6.70
2018-02-13T09:16:01.479Z,5.60
2018-02-13T09:17:01.512Z,5.60
2018-02-13T09:18:01.546Z,5.00
2018-02-13T09:19:01.581Z,4.40
2018-02-13T09:20:01.615Z,4.10
2018-02-13T09:21:01.649Z,4.00
2018-02-13T09:22:01.684Z,4.00
2018-02-13T09:23:01.719Z,4.20
2018-02-13T09:24:01.756Z,3.20
2018-02-13T09:25:01.789Z,3.10
2018-02-13T09:26:01.825Z,3.10
2018-02-13T09:27:01.859Z,3.10
2018-02-13T09:28:01.895Z,3.60
2018-02-13T09:29:01.930Z,2.90
2018-02-13T09:30:01.966Z,2.30
2018-02-13T09:31:02.004Z,2.20
2018-02-13T09:32:02.038Z,2.60
2018-02-13T09:33:02.074Z,2.10
2018-02-13T09:34:02.111Z,2.40
2018-02-13T09:35:02.148Z,2.20
2018-02-13T09:36:02.184Z,2.00
2018-02-13T09:37:02.221Z,2.20
2018-02-13T09:38:02.258Z,2.20
2018-02-13T09:39:02.296Z,2.00
2018-02-13T09:40:02.333Z,2.10
2018-02-13T09:41:02.370Z,2.40
2018-02-13T09:42:02.409Z,2.30
2018-02-13T09:43:02.447Z,2.00
2018-02-13T09:44:02.484Z,2.30
2018-02-13T09:45:02.523Z,2.60
2018-02-13T09:46:02.561Z,2.50
2018-02-13T09:47:02.601Z,2.60
2018-02-13T09:48:02.640Z,2.30
2018-02-13T09:49:02.678Z,3.10
2018-02-13T09:50:02.717Z,3.40
2018-02-13T09:51:02.756Z,3.20
2018-02-13T09:52:02.797Z,3.60
2018-02-13T09:53:02.835Z,3.80
2018-02-13T09:54:02.875Z,3.90
2018-02-13T09:55:02.914Z,4.00
2018-02-13T09:56:02.955Z,4.60
2018-02-13T09:57:02.994Z,4.00
2018-02-13T09:58:03.033Z,3.90
2018-02-13T09:59:03.074Z,4.00
2018-02-13T10:00:03.114Z,4.30
2018-02-13T10:01:03.155Z,4.90
2018-02-13T10:02:03.196Z,4.80
2018-02-13T10:03:03.234Z,4.80
2018-02-13T10:04:03.277Z,4.10
2018-02-13T10:05:03.317Z,4.60
2018-02-13T10:06:03.360Z,3.40
2018-02-13T10:07:03.398Z,3.70
2018-02-13T10:08:03.440Z,3.70
2018-02-13T10:09:03.482Z,3.40
2018-02-13T10:10:03.524Z,3.20
2018-02-13T10:11:03.564Z,3.40
2018-02-13T10:12:03.605Z,2.60
2018-02-13T10:13:03.646Z,2.90
2018-02-13T10:14:03.687Z,3.20
2018-02-13T10:15:03.730Z,3.00
2018-02-13T10:16:03.781Z,2.70
2018-02-13T10:17:03.812Z,2.80
2018-02-13T10:18:03.861Z,2.60
2018-02-13T10:19:03.899Z,2.70
2018-02-13T10:20:03.943Z,2.50
2018-02-13T10:21:03.983Z,3.00
2018-02-13T10:22:04.026Z,2.90
2018-02-13T10:23:04.068Z,2.90
2018-02-13T10:24:04.112Z,2.70
2018-02-13T10:25:04.152Z,2.00
2018-02-13T10:26:04.196Z,2.20
2018-02-13T10:27:04.239Z,2.30
2018-02-13T10:28:04.283Z,2.70
2018-02-13T10:29:04.324Z,2.20
2018-02-13T10:30:04.366Z,2.10
2018-02-13T10:31:04.411Z,2.50
2018-02-13T10:32:04.454Z,2.20
2018-02-13T10:33:04.498Z,2.90
2018-02-13T10:34:04.540Z,2.60
2018-02-13T10:35:04.584Z,2.60
2018-02-13T10:36:04.629Z,2.40
2018-02-13T10:37:04.669Z,2.60
2018-02-13T10:38:04.714Z,2.50
2018-02-13T10:39:04.758Z,2.40
2018-02-13T10:40:04.799Z,2.70
2018-02-13T10:41:04.843Z,2.00
2018-02-13T10:42:04.890Z,2.60
2018-02-13T10:43:04.931Z,2.30
2018-02-13T10:44:04.975Z,1.80
2018-02-13T10:45:05.018Z,2.10
2018-02-13T10:46:05.064Z,2.00
2018-02-13T10:47:05.106Z,1.70
2018-02-13T10:48:05.197Z,1.80
2018-02-13T10:49:05.195Z,1.70
2018-02-13T10:50:05.240Z,2.10
2018-02-13T10:51:05.284Z,1.70
2018-02-13T10:52:05.328Z,2.30
2018-02-13T10:53:05.373Z,1.90
2018-02-13T10:54:05.420Z,1.70
2018-02-13T10:55:05.464Z,1.60
2018-02-13T10:56:05.509Z,1.90
2018-02-13T10:57:05.553Z,2.30
2018-02-13T10:58:05.598Z,1.60
2018-02-13T10:59:05.698Z,2.20
2018-02-13T11:00:05.687Z,1.90
2018-02-13T11:01:05.734Z,1.90
2018-02-13T11:02:05.777Z,2.30
2018-02-13T11:03:05.822Z,2.10
2018-02-13T11:04:05.871Z,2.10
2018-02-13T11:05:05.912Z,2.00
2018-02-13T11:06:05.958Z,2.10
2018-02-13T11:07:06.003Z,2.50
2018-02-13T11:08:06.049Z,2.30
2018-02-13T11:09:06.093Z,2.50
2018-02-13T11:10:06.138Z,1.80
2018-02-13T11:11:06.184Z,2.40
2018-02-13T11:12:06.233Z,3.90
2018-02-13T11:13:06.276Z,3.40
2018-02-13T11:14:06.321Z,2.60
2018-02-13T11:15:06.367Z,2.80
2018-02-13T11:16:06.412Z,2.10
2018-02-13T11:17:06.456Z,2.20
2018-02-13T11:18:06.502Z,1.80
2018-02-13T11:19:06.552Z,1.60
2018-02-13T11:20:06.594Z,1.90
2018-02-13T11:21:06.638Z,2.10
2018-02-13T11:22:06.685Z,1.70
2018-02-13T11:23:06.731Z,2.10
2018-02-13T11:24:06.777Z,1.70
2018-02-13T11:25:06.822Z,2.10
2018-02-13T11:26:06.867Z,2.50
2018-02-13T11:27:06.922Z,2.20
2018-02-13T11:28:06.962Z,2.00
2018-02-13T11:29:07.004Z,2.10
2018-02-13T11:30:07.051Z,2.20
2018-02-13T11:31:07.096Z,1.80
2018-02-13T11:32:07.142Z,1.80
2018-02-13T11:33:07.187Z,2.10
2018-02-13T11:34:07.235Z,2.10
2018-02-13T11:35:07.279Z,2.20
2018-02-13T11:36:07.326Z,2.30
2018-02-13T11:37:07.371Z,2.60
2018-02-13T11:38:07.417Z,2.50
2018-02-13T11:39:07.463Z,2.10
2018-02-13T11:40:07.512Z,2.10
2018-02-13T11:41:07.557Z,2.70
2018-02-13T11:42:07.604Z,3.00
2018-02-13T11:43:07.649Z,3.20
2018-02-13T11:44:07.698Z,2.60
2018-02-13T11:45:07.742Z,2.50
2018-02-13T11:46:07.788Z,2.30
2018-02-13T11:47:07.835Z,2.10
2018-02-13T11:48:07.881Z,2.50
2018-02-13T11:49:07.927Z,3.20
2018-02-13T11:50:07.974Z,2.80
2018-02-13T11:51:08.020Z,2.70
2018-02-13T11:52:08.068Z,2.90
2018-02-13T11:53:08.113Z,2.70
2018-02-13T11:54:08.158Z,2.80
2018-02-13T11:55:08.206Z,2.90
2018-02-13T11:56:08.252Z,3.20
2018-02-13T11:57:08.298Z,2.70
2018-02-13T11:58:08.345Z,2.60
2018-02-13T11:59:08.391Z,3.50
2018-02-13T12:00:08.437Z,2.90
2018-02-13T12:01:08.482Z,2.50
2018-02-13T12:02:08.530Z,2.80
2018-02-13T12:03:08.577Z,2.50
2018-02-13T12:04:08.623Z,2.10
2018-02-13T12:05:08.669Z,2.20
2018-02-13T12:06:08.716Z,2.00
2018-02-13T12:07:08.761Z,2.10
2018-02-13T12:08:08.848Z,2.10
2018-02-13T12:09:08.853Z,1.80
2018-02-13T12:10:08.900Z,2.00
2018-02-13T12:11:08.947Z,2.30
2018-02-13T12:12:08.993Z,2.10
2018-02-13T12:13:09.038Z,2.10
2018-02-13T12:14:09.109Z,2.30
2018-02-13T12:15:09.131Z,2.20
2018-02-13T12:16:09.202Z,2.50
2018-02-13T12:17:09.226Z,2.30
2018-02-13T12:18:09.270Z,2.10
2018-02-13T12:19:09.317Z,2.70
2018-02-13T12:20:09.369Z,1.90
2018-02-13T12:21:09.409Z,2.10
2018-02-13T12:22:09.456Z,2.30
2018-02-13T12:23:09.503Z,2.30
2018-02-13T12:24:09.551Z,2.00
2018-02-13T12:25:09.597Z,2.50
2018-02-13T12:26:09.643Z,2.30
2018-02-13T12:27:09.691Z,2.40
2018-02-13T12:28:09.738Z,2.50
2018-02-13T12:29:09.784Z,2.20
2018-02-13T12:30:09.833Z,2.40
2018-02-13T12:31:09.879Z,2.50
2018-02-13T12:32:09.927Z,2.30
2018-02-13T12:33:09.974Z,2.40
2018-02-13T12:34:10.021Z,2.30
2018-02-13T12:35:10.070Z,2.60
2018-02-13T12:36:10.118Z,4.00
2018-02-13T12:37:10.164Z,3.70
2018-02-13T12:38:10.210Z,2.90
2018-02-13T12:39:10.260Z,3.10
2018-02-13T12:40:10.308Z,3.20
2018-02-13T12:41:10.354Z,3.20
2018-02-13T12:42:10.403Z,3.20
2018-02-13T12:43:10.450Z,3.10
2018-02-13T12:44:10.498Z,3.20
2018-02-13T12:45:10.549Z,3.40
2018-02-13T12:46:10.592Z,3.20
2018-02-13T12:47:10.641Z,3.40
2018-02-13T12:48:10.686Z,4.20
2018-02-13T12:49:10.732Z,4.00
2018-02-13T12:50:10.779Z,4.50
2018-02-13T12:51:10.827Z,3.90
2018-02-13T12:52:10.873Z,3.90
2018-02-13T12:53:10.918Z,3.90
2018-02-13T12:54:10.966Z,4.40
2018-02-13T12:55:11.011Z,3.80
2018-02-13T12:56:11.119Z,4.00
2018-02-13T12:57:11.105Z,3.70
2018-02-13T12:58:11.152Z,3.60
2018-02-13T12:59:11.198Z,3.80
2018-02-13T13:00:11.243Z,3.40
2018-02-13T13:01:11.289Z,3.50
2018-02-13T13:02:11.335Z,3.40
2018-02-13T13:03:11.382Z,3.60
2018-02-13T13:04:11.429Z,3.50
2018-02-13T13:05:11.478Z,3.50
2018-02-13T13:06:11.520Z,3.60
2018-02-13T13:07:11.589Z,3.90
2018-02-13T13:08:11.611Z,3.30
2018-02-13T13:09:11.657Z,4.10
2018-02-13T13:10:11.704Z,3.50
2018-02-13T13:11:11.748Z,3.80
2018-02-13T13:12:11.801Z,3.80
2018-02-13T13:13:11.839Z,3.60
2018-02-13T13:14:11.885Z,3.40
2018-02-13T13:15:11.935Z,3.70
2018-02-13T13:16:11.979Z,3.20
2018-02-13T13:17:12.024Z,3.90
2018-02-13T13:18:12.070Z,3.50
2018-02-13T13:19:12.116Z,4.60
2018-02-13T13:20:12.162Z,3.80
2018-02-13T13:21:12.209Z,3.60
2018-02-13T13:22:12.252Z,3.60
2018-02-13T13:23:12.297Z,3.70
2018-02-13T13:24:12.346Z,3.70
2018-02-13T13:25:12.390Z,3.50
2018-02-13T13:26:12.440Z,3.50
2018-02-13T13:27:12.481Z,3.80
2018-02-13T13:28:12.526Z,3.60